aviador You're here:

KLUK Decoded Metar

CINCINNATI in OH, USA
Report Time2018-02-22 07:53:00
UTC Time2018-02-22 08:41:17
Flight Rules mvfr MVFR
Wind030° at 12 Gusting to 20 kt
W.Decomp.*RWY 03: 12.0 kt HW 0.8 kt RCW
RWY 07: 9.7 kt HW 7.1 kt LCW
W.Rank030° ranks 10
Current wind is above 030° avg. (5.6)
Visibility8047 m
Phenomena:Rain
Mist
Clouds:Overcast 014 Hf
Ceiling1,400 ft
Temp04°C (ISA -10)
Dew Point04°C (100% RH)
AAT-1.6°C
QNH1031 hPa
Density Alt-1,198 ft
Elevation509 ft
Report Wrong Elevation
Raw Report
METAR KLUK 220753Z AUTO 03012G20KT 5SM RA BR OVC014 04/04 A3044 RMK
AO2 SLP309 P0012 T00440039=

Extra information for KLUK:More info

Metar Taf Metar & Taf Last 4 Metars F.Rules Stats Wind Profile Meteogram Temp Stats Airport Information Weather charts Add Link Nearby VenuesMetar ALERT Operation Metar Decoded Social comments

AIRNAV info for KLUK